Time;durP1;ratioP1;P1;durP2;ratioP2;P2;SDS_P1;SDS_P2;PMS_P1;PMS_P2;Temp;Humidity;BMP_temperature;BMP_pressure;BME280_temperature;BME280_humidity;BME280_pressure;Samples;Min_cycle;Max_cycle;Signal;HPM_P1;HPM_P2
2023/06/10 00:01:55;;;;;;;6.70;3.80;;;20.40;96.30;;;;;;5106837;28;20672;-75
2023/06/10 00:04:22;;;;;;;7.00;4.10;;;20.30;96.40;;;;;;5101741;28;20207;-74
2023/06/10 00:06:49;;;;;;;6.65;3.97;;;20.30;96.50;;;;;;5103073;28;20200;-74
2023/06/10 00:09:16;;;;;;;6.32;3.75;;;20.20;96.50;;;;;;5102876;28;20705;-75
2023/06/10 00:11:43;;;;;;;8.63;4.65;;;20.20;96.30;;;;;;5104434;28;20227;-74
2023/06/10 00:14:10;;;;;;;7.75;4.15;;;20.10;96.40;;;;;;5105147;28;20621;-75
2023/06/10 00:16:38;;;;;;;9.52;3.88;;;20.10;96.40;;;;;;5104874;28;20620;-73
2023/06/10 00:19:05;;;;;;;8.32;4.45;;;20.10;96.50;;;;;;5100484;28;20203;-74
2023/06/10 00:21:41;;;;;;;5.95;3.65;;;20.00;96.50;;;;;;5105784;28;20199;-76
2023/06/10 00:24:13;;;;;;;7.10;4.13;;;20.00;96.60;;;;;;5101551;28;20207;-74
2023/06/10 00:26:41;;;;;;;6.25;4.30;;;20.00;96.60;;;;;;5103384;28;20238;-75
2023/06/10 00:29:09;;;;;;;5.28;4.13;;;19.90;96.70;;;;;;5102072;28;20245;-74
2023/06/10 00:31:37;;;;;;;5.90;3.97;;;19.80;96.70;;;;;;5105909;28;20215;-75
2023/06/10 00:34:04;;;;;;;8.20;4.50;;;19.70;97.10;;;;;;5099431;28;20684;-74
2023/06/10 00:36:32;;;;;;;8.88;4.53;;;19.80;96.90;;;;;;5101259;28;20207;-75
2023/06/10 00:38:59;;;;;;;7.85;4.38;;;19.70;96.90;;;;;;5104806;28;20200;-74
2023/06/10 00:41:26;;;;;;;8.80;4.10;;;19.70;97.00;;;;;;5087503;28;20665;-75
2023/06/10 00:43:53;;;;;;;6.90;3.80;;;19.70;96.90;;;;;;5106171;28;20196;-75
2023/06/10 00:46:22;;;;;;;9.15;4.57;;;19.70;97.10;;;;;;5098705;28;20254;-74
2023/06/10 00:48:49;;;;;;;7.25;4.53;;;19.70;97.00;;;;;;5100382;28;20659;-75
2023/06/10 00:51:18;;;;;;;7.95;4.32;;;19.70;97.10;;;;;;5109364;28;20195;-74
2023/06/10 00:53:45;;;;;;;7.72;4.60;;;19.60;97.10;;;;;;5100148;28;20231;-75
2023/06/10 00:56:13;;;;;;;7.68;4.57;;;19.60;97.20;;;;;;5103342;28;20195;-75
2023/06/10 00:58:40;;;;;;;9.05;5.00;;;19.60;97.30;;;;;;5097801;28;20203;-74
2023/06/10 01:01:10;;;;;;;8.02;5.00;;;19.50;97.40;;;;;;5092505;28;20749;-74
2023/06/10 01:03:38;;;;;;;7.63;4.65;;;19.40;97.40;;;;;;5103829;28;20207;-77
2023/06/10 01:06:47;;;;;;;8.40;4.90;;;19.50;97.60;;;;;;5104230;28;20196;-74
2023/06/10 01:09:37;;;;;;;8.93;4.70;;;19.40;97.60;;;;;;5116983;27;20207;-74
2023/06/10 01:12:33;;;;;;;7.03;4.43;;;19.40;97.70;;;;;;5097027;28;20227;-74
2023/06/10 01:15:03;;;;;;;7.72;4.57;;;19.30;97.80;;;;;;5115879;27;20288;-75
2023/06/10 01:17:30;;;;;;;9.30;5.20;;;19.30;97.80;;;;;;5098951;28;20624;-76
2023/06/10 01:19:57;;;;;;;8.10;4.65;;;19.20;97.80;;;;;;5102448;28;20261;-74
2023/06/10 01:22:28;;;;;;;9.00;5.15;;;19.30;97.90;;;;;;5104858;28;20206;-74
2023/06/10 01:24:58;;;;;;;7.25;4.55;;;19.30;98.00;;;;;;5101596;28;20682;-74
2023/06/10 01:27:30;;;;;;;7.93;5.00;;;19.20;97.90;;;;;;5104075;28;20207;-74
2023/06/10 01:30:04;;;;;;;7.50;4.68;;;19.20;98.00;;;;;;5099745;28;20207;-74
2023/06/10 01:32:39;;;;;;;7.80;4.53;;;19.20;98.10;;;;;;5086685;28;20220;-75
2023/06/10 01:35:07;;;;;;;9.13;5.45;;;19.10;98.10;;;;;;5102879;28;20596;-74
2023/06/10 01:37:38;;;;;;;8.13;4.90;;;19.10;98.20;;;;;;5098818;28;20212;-74
2023/06/10 01:40:07;;;;;;;9.10;4.05;;;19.10;98.40;;;;;;5115289;27;20199;-75
2023/06/10 01:42:34;;;;;;;7.72;4.60;;;19.10;98.50;;;;;;5103547;28;20199;-74
2023/06/10 01:45:01;;;;;;;9.73;5.22;;;19.00;98.60;;;;;;5100531;28;20568;-74
2023/06/10 01:47:29;;;;;;;10.73;5.18;;;19.00;98.80;;;;;;5082444;28;20220;-74
2023/06/10 01:49:56;;;;;;;10.50;5.40;;;18.90;98.90;;;;;;5098721;28;20195;-73
2023/06/10 01:52:22;;;;;;;8.85;5.43;;;18.90;99.00;;;;;;5101193;28;20219;-74
2023/06/10 01:54:49;;;;;;;10.05;5.30;;;18.90;99.00;;;;;;5088590;28;20688;-74
2023/06/10 01:57:16;;;;;;;9.07;4.78;;;18.90;99.00;;;;;;5100365;28;20672;-74
2023/06/10 01:59:44;;;;;;;10.63;5.47;;;18.80;99.10;;;;;;5104326;28;20566;-73
2023/06/10 02:02:11;;;;;;;11.63;5.82;;;18.80;99.20;;;;;;5103547;28;20235;-74
2023/06/10 02:04:37;;;;;;;10.57;5.17;;;18.70;99.30;;;;;;5098956;28;20208;-74
2023/06/10 02:07:05;;;;;;;6.68;4.80;;;18.70;99.40;;;;;;5101202;28;20210;-76
2023/06/10 02:09:34;;;;;;;9.07;5.60;;;18.70;99.50;;;;;;5102869;28;20667;-76
2023/06/10 02:12:03;;;;;;;9.27;5.40;;;18.60;99.50;;;;;;5104346;28;20227;-74
2023/06/10 02:14:32;;;;;;;10.97;5.53;;;18.60;99.60;;;;;;5095166;28;20364;-74
2023/06/10 02:16:58;;;;;;;10.30;5.00;;;18.60;99.70;;;;;;5100301;28;20219;-75
2023/06/10 02:19:26;;;;;;;9.65;5.00;;;18.50;99.80;;;;;;5082804;28;20207;-74
2023/06/10 02:21:54;;;;;;;11.38;5.03;;;18.50;99.90;;;;;;5103185;28;20188;-74
2023/06/10 02:24:20;;;;;;;11.13;4.70;;;18.50;99.90;;;;;;5079190;28;20269;-75
2023/06/10 02:26:47;;;;;;;10.07;5.20;;;18.40;99.90;;;;;;5087004;28;20503;-74
2023/06/10 02:29:14;;;;;;;8.00;5.27;;;18.40;99.90;;;;;;5103615;28;20199;-73
2023/06/10 02:31:41;;;;;;;11.10;5.17;;;18.30;99.90;;;;;;5104568;28;20211;-75
2023/06/10 02:34:08;;;;;;;8.77;4.70;;;18.30;99.90;;;;;;5098374;28;20232;-74
2023/06/10 02:36:35;;;;;;;9.03;4.87;;;18.30;99.90;;;;;;5098922;28;20198;-74
2023/06/10 02:39:04;;;;;;;10.40;5.17;;;18.20;99.90;;;;;;5100136;28;20204;-75
2023/06/10 02:41:31;;;;;;;10.93;5.67;;;18.20;99.90;;;;;;5095818;28;20215;-74
2023/06/10 02:43:58;;;;;;;9.77;5.70;;;18.10;99.90;;;;;;5103948;28;20207;-74
2023/06/10 02:46:25;;;;;;;7.63;4.83;;;18.10;99.90;;;;;;5096031;28;20297;-74
2023/06/10 02:48:52;;;;;;;12.60;6.00;;;18.00;99.90;;;;;;5100322;28;20654;-74
2023/06/10 02:51:19;;;;;;;7.97;4.60;;;18.00;99.90;;;;;;5085799;28;20230;-73
2023/06/10 02:53:46;;;;;;;9.77;5.00;;;18.00;99.90;;;;;;5082209;28;20306;-75
2023/06/10 02:56:16;;;;;;;9.37;5.67;;;17.90;99.90;;;;;;5097750;28;20259;-74
2023/06/10 02:58:43;;;;;;;9.60;5.00;;;17.90;99.90;;;;;;5098163;28;20204;-74
2023/06/10 03:01:10;;;;;;;11.93;5.40;;;17.90;99.90;;;;;;5100840;28;20211;-74
2023/06/10 03:03:40;;;;;;;7.67;5.20;;;17.80;99.90;;;;;;5104877;28;20261;-74
2023/06/10 03:06:12;;;;;;;11.90;5.50;;;17.80;99.90;;;;;;5100847;28;20207;-73
2023/06/10 03:08:40;;;;;;;12.07;5.53;;;17.80;99.90;;;;;;5101700;28;20202;-74
2023/06/10 03:11:07;;;;;;;9.33;5.60;;;17.80;99.90;;;;;;5099979;28;20204;-74
2023/06/10 03:13:34;;;;;;;10.17;5.37;;;17.80;99.90;;;;;;5097313;28;20295;-75
2023/06/10 03:16:03;;;;;;;9.97;6.07;;;17.70;99.90;;;;;;5099972;28;20219;-76
2023/06/10 03:18:29;;;;;;;11.33;5.73;;;17.70;99.90;;;;;;5095377;28;20196;-74
2023/06/10 03:20:57;;;;;;;10.17;5.37;;;17.70;99.90;;;;;;5105714;28;20203;-74
2023/06/10 03:23:24;;;;;;;10.27;5.43;;;17.60;99.90;;;;;;5093888;28;20204;-73
2023/06/10 03:25:51;;;;;;;10.17;5.70;;;17.60;99.90;;;;;;5099739;28;20260;-74
2023/06/10 03:28:17;;;;;;;8.37;5.57;;;17.60;99.90;;;;;;5094328;28;20245;-74
2023/06/10 03:30:44;;;;;;;10.57;6.00;;;17.60;99.90;;;;;;5100129;28;20251;-74
2023/06/10 03:33:11;;;;;;;9.40;5.40;;;17.50;99.90;;;;;;5068971;28;20260;-74
2023/06/10 03:35:38;;;;;;;9.73;5.80;;;17.60;99.90;;;;;;5095188;28;20243;-76
2023/06/10 03:38:05;;;;;;;13.33;6.13;;;17.50;99.90;;;;;;5100757;28;20202;-73
2023/06/10 03:40:31;;;;;;;9.13;5.43;;;17.50;99.90;;;;;;5097911;28;20264;-75
2023/06/10 03:42:59;;;;;;;10.47;5.23;;;17.50;99.90;;;;;;5097824;28;20207;-74
2023/06/10 03:45:28;;;;;;;11.13;5.43;;;17.50;99.90;;;;;;5097053;28;20203;-75
2023/06/10 03:47:55;;;;;;;9.30;4.97;;;17.50;99.90;;;;;;5113035;27;20226;-75
2023/06/10 03:50:23;;;;;;;10.67;6.20;;;17.50;99.90;;;;;;5101181;28;20196;-75
2023/06/10 03:52:51;;;;;;;12.40;5.77;;;17.50;99.90;;;;;;5095404;28;20277;-75
2023/06/10 03:55:18;;;;;;;11.10;6.10;;;17.50;99.90;;;;;;5099400;28;20227;-74
2023/06/10 03:57:44;;;;;;;9.33;5.97;;;17.50;99.90;;;;;;5080782;28;20199;-76
2023/06/10 04:00:12;;;;;;;11.23;6.20;;;17.50;99.90;;;;;;5101121;28;20207;-75
2023/06/10 04:02:57;;;;;;;12.73;5.93;;;17.50;99.90;;;;;;5098227;28;20658;-75
2023/06/10 04:05:25;;;;;;;9.97;5.63;;;17.50;99.90;;;;;;5080404;28;20656;-74
2023/06/10 04:07:52;;;;;;;11.70;6.07;;;17.50;99.90;;;;;;5094765;28;20660;-76
2023/06/10 04:10:19;;;;;;;10.70;5.33;;;17.50;99.90;;;;;;5103185;28;20206;-74
2023/06/10 04:12:45;;;;;;;9.20;6.23;;;17.50;99.90;;;;;;5098584;28;20634;-77
2023/06/10 04:15:13;;;;;;;8.23;5.53;;;17.50;99.90;;;;;;5079265;28;20254;-74
2023/06/10 04:17:40;;;;;;;10.80;6.40;;;17.50;99.90;;;;;;5097750;28;20264;-75
2023/06/10 04:20:07;;;;;;;11.60;6.23;;;17.50;99.90;;;;;;5100781;28;20199;-75
2023/06/10 04:22:34;;;;;;;10.30;6.00;;;17.60;99.90;;;;;;5100420;28;20218;-75
2023/06/10 04:25:02;;;;;;;9.40;5.80;;;17.60;99.90;;;;;;5090818;28;20676;-75
2023/06/10 04:27:30;;;;;;;11.73;5.77;;;17.60;99.90;;;;;;5117054;28;20217;-75
2023/06/10 04:29:57;;;;;;;8.40;5.83;;;17.60;99.90;;;;;;5098520;28;20555;-76
2023/06/10 04:32:24;;;;;;;12.23;6.27;;;17.60;99.90;;;;;;5097468;28;20716;-73
2023/06/10 04:34:50;;;;;;;12.50;6.30;;;17.70;99.90;;;;;;5097549;28;20228;-75
2023/06/10 04:37:18;;;;;;;7.80;5.77;;;17.70;99.90;;;;;;5098056;28;20721;-76
2023/06/10 04:39:45;;;;;;;9.47;6.17;;;17.70;99.90;;;;;;5105894;28;20634;-74
2023/06/10 04:42:11;;;;;;;9.40;5.43;;;17.80;99.90;;;;;;5105312;28;20269;-74
2023/06/10 04:44:38;;;;;;;9.40;6.17;;;17.80;99.90;;;;;;5103121;28;20214;-76
2023/06/10 04:47:07;;;;;;;9.90;6.03;;;17.80;99.90;;;;;;5101652;27;20225;-74
2023/06/10 04:49:35;;;;;;;8.90;5.20;;;17.90;99.90;;;;;;5118157;27;20207;-75
2023/06/10 04:52:21;;;;;;;11.20;5.87;;;17.80;99.90;;;;;;5101599;27;20207;-77
2023/06/10 04:54:48;;;;;;;10.20;5.67;;;18.00;99.90;;;;;;5094601;28;20222;-77
2023/06/10 04:57:15;;;;;;;8.30;5.80;;;18.10;99.90;;;;;;5107904;28;20215;-74
2023/06/10 04:59:42;;;;;;;8.97;5.63;;;18.00;99.90;;;;;;5110053;28;20676;-75
2023/06/10 05:02:09;;;;;;;10.40;6.23;;;18.10;99.90;;;;;;5108240;28;20227;-77
2023/06/10 05:04:36;;;;;;;9.25;6.30;;;18.10;99.90;;;;;;5105994;28;20199;-75
2023/06/10 05:07:03;;;;;;;10.07;6.03;;;18.10;99.90;;;;;;5105952;27;20207;-75
2023/06/10 05:09:30;;;;;;;11.05;6.22;;;18.20;99.90;;;;;;5103316;28;20203;-75
2023/06/10 05:11:57;;;;;;;10.13;6.32;;;18.30;99.90;;;;;;5102630;28;20223;-75
2023/06/10 05:14:24;;;;;;;10.45;6.18;;;18.30;99.90;;;;;;5102015;28;20249;-74
2023/06/10 05:16:52;;;;;;;11.32;5.70;;;18.40;99.90;;;;;;5104761;28;20648;-76
2023/06/10 05:19:19;;;;;;;11.57;6.65;;;18.50;99.90;;;;;;5085442;28;20225;-76
2023/06/10 05:21:46;;;;;;;10.15;5.95;;;18.50;99.90;;;;;;5115782;28;20616;-74
2023/06/10 05:24:14;;;;;;;8.63;5.97;;;18.60;99.90;;;;;;5110106;28;20241;-74
2023/06/10 05:26:41;;;;;;;12.23;5.90;;;18.90;99.90;;;;;;5113625;28;20546;-74
2023/06/10 05:29:11;;;;;;;9.25;5.45;;;19.60;99.90;;;;;;5106110;28;20206;-75
2023/06/10 05:31:38;;;;;;;9.40;5.47;;;20.60;99.90;;;;;;5095861;28;20207;-77
2023/06/10 05:34:05;;;;;;;9.68;5.95;;;21.70;99.90;;;;;;5106125;27;20231;-77
2023/06/10 05:36:32;;;;;;;9.15;5.63;;;22.70;99.90;;;;;;5101281;27;20207;-76
2023/06/10 05:39:00;;;;;;;7.63;4.70;;;23.60;99.90;;;;;;5103426;27;20263;-76
2023/06/10 05:41:27;;;;;;;8.70;5.15;;;24.50;99.90;;;;;;5079704;28;20560;-75
2023/06/10 05:43:54;;;;;;;10.10;5.90;;;;;;;;;;5108282;27;20248;-74
2023/06/10 05:46:21;;;;;;;9.18;5.32;;;25.90;99.90;;;;;;5108324;27;20207;-75
2023/06/10 05:48:48;;;;;;;11.55;5.55;;;26.50;99.90;;;;;;5105550;27;20213;-75
2023/06/10 05:51:14;;;;;;;8.27;5.40;;;27.20;99.90;;;;;;5104364;28;20213;-75
2023/06/10 05:53:41;;;;;;;9.32;5.60;;;27.90;99.90;;;;;;5100867;28;20204;-75
2023/06/10 05:56:08;;;;;;;6.97;5.00;;;28.20;98.70;;;;;;5084239;28;20228;-75
2023/06/10 05:58:35;;;;;;;8.57;5.63;;;28.60;98.10;;;;;;5105554;28;20200;-74
2023/06/10 06:01:02;;;;;;;9.30;5.68;;;28.90;97.20;;;;;;5107634;28;20219;-74
2023/06/10 06:03:29;;;;;;;9.05;5.20;;;29.30;96.60;;;;;;5107106;28;20200;-78
2023/06/10 06:05:56;;;;;;;9.90;5.53;;;29.50;95.90;;;;;;5104620;27;20565;-75
2023/06/10 06:08:23;;;;;;;8.57;5.43;;;29.70;95.30;;;;;;5106645;27;20203;-75
2023/06/10 06:10:50;;;;;;;10.55;5.63;;;29.90;94.80;;;;;;5108063;28;20199;-76
2023/06/10 06:13:17;;;;;;;10.05;5.13;;;30.10;94.50;;;;;;5113292;27;20218;-78
2023/06/10 06:15:44;;;;;;;6.90;4.93;;;30.40;93.70;;;;;;5097981;28;20617;-76
2023/06/10 06:18:11;;;;;;;9.55;6.07;;;30.40;93.20;;;;;;5098988;28;20215;-75
2023/06/10 06:20:38;;;;;;;6.55;5.00;;;30.50;92.80;;;;;;5105988;28;20571;-76
2023/06/10 06:23:05;;;;;;;7.75;4.97;;;30.50;92.30;;;;;;5104999;28;20256;-75
2023/06/10 06:25:33;;;;;;;7.38;4.75;;;30.50;92.30;;;;;;5095588;28;20592;-77
2023/06/10 06:28:00;;;;;;;9.50;6.18;;;30.60;92.10;;;;;;5098795;28;20608;-76
2023/06/10 06:30:26;;;;;;;8.23;5.72;;;30.90;91.70;;;;;;5104852;27;20206;-77
2023/06/10 06:32:53;;;;;;;7.75;5.53;;;31.10;91.70;;;;;;5106050;28;20624;-76
2023/06/10 06:35:20;;;;;;;8.70;5.10;;;31.20;91.30;;;;;;5102801;27;20229;-75
2023/06/10 06:37:47;;;;;;;7.25;4.65;;;31.40;91.00;;;;;;5081327;28;20237;-76
2023/06/10 06:40:14;;;;;;;7.10;4.80;;;31.70;90.40;;;;;;5102695;27;20255;-77
2023/06/10 06:42:41;;;;;;;7.22;5.05;;;31.70;90.20;;;;;;5093706;27;20213;-77
2023/06/10 06:45:08;;;;;;;7.00;4.65;;;31.70;89.90;;;;;;5108745;27;20289;-76
2023/06/10 06:47:36;;;;;;;6.55;5.07;;;31.70;89.20;;;;;;5092611;28;20212;-75
2023/06/10 06:50:03;;;;;;;6.90;4.53;;;31.60;89.10;;;;;;5091706;27;20207;-74
2023/06/10 06:52:30;;;;;;;8.02;4.80;;;31.70;89.00;;;;;;5102384;27;20195;-74
2023/06/10 06:54:57;;;;;;;9.15;5.10;;;31.90;88.70;;;;;;5110449;27;20768;-75
2023/06/10 06:57:24;;;;;;;9.27;4.35;;;31.90;88.50;;;;;;5087360;28;20219;-74
2023/06/10 06:59:51;;;;;;;7.63;5.00;;;32.10;87.80;;;;;;5072300;28;20278;-75
2023/06/10 07:02:18;;;;;;;8.65;5.45;;;32.40;86.30;;;;;;5084502;28;20214;-75
2023/06/10 07:04:48;;;;;;;7.05;5.32;;;;;;;;;;5087209;28;20304;-74
2023/06/10 07:07:15;;;;;;;7.75;4.70;;;31.60;86.00;;;;;;5105491;27;20198;-73
2023/06/10 07:09:43;;;;;;;8.02;5.15;;;31.40;87.40;;;;;;5101185;28;20207;-75
2023/06/10 07:12:10;;;;;;;8.63;5.10;;;31.50;87.10;;;;;;5099596;28;20249;-75
2023/06/10 07:14:37;;;;;;;6.95;5.00;;;31.60;87.60;;;;;;5104020;28;20312;-74
2023/06/10 07:17:04;;;;;;;5.88;4.70;;;31.70;87.10;;;;;;5100157;28;20223;-75
2023/06/10 07:19:30;;;;;;;10.82;4.82;;;31.70;86.70;;;;;;5104299;28;20198;-75
2023/06/10 07:21:57;;;;;;;8.63;5.05;;;31.90;86.30;;;;;;5104174;28;20199;-76
2023/06/10 07:24:24;;;;;;;7.80;5.10;;;32.20;85.70;;;;;;5101343;28;20555;-76
2023/06/10 07:26:51;;;;;;;6.35;4.75;;;32.10;84.70;;;;;;5099597;28;20199;-76
2023/06/10 07:29:18;;;;;;;7.97;4.80;;;32.30;85.00;;;;;;5101816;28;20206;-75
2023/06/10 07:31:45;;;;;;;7.25;4.82;;;32.10;84.20;;;;;;5106360;28;20214;-73
2023/06/10 07:34:12;;;;;;;8.00;5.40;;;31.80;83.00;;;;;;5104906;28;20199;-75
2023/06/10 07:36:38;;;;;;;7.65;4.35;;;31.20;84.10;;;;;;5099857;28;20629;-75
2023/06/10 07:39:06;;;;;;;7.38;4.75;;;31.00;85.40;;;;;;5102387;28;20203;-76
2023/06/10 07:41:33;;;;;;;6.78;4.40;;;31.20;85.60;;;;;;5086289;28;20641;-75
2023/06/10 07:44:00;;;;;;;6.80;4.13;;;31.20;84.30;;;;;;5086590;28;20234;-75
2023/06/10 07:46:28;;;;;;;8.57;4.75;;;31.00;84.00;;;;;;5097554;28;20219;-75
2023/06/10 07:48:55;;;;;;;7.75;4.72;;;30.70;84.00;;;;;;5076029;28;20250;-75
2023/06/10 07:51:21;;;;;;;9.10;4.30;;;30.80;85.10;;;;;;5098584;28;20275;-76
2023/06/10 07:53:48;;;;;;;6.25;4.55;;;30.80;84.80;;;;;;5112654;28;20207;-76
2023/06/10 07:56:15;;;;;;;10.68;5.25;;;31.00;85.50;;;;;;5101152;28;20230;-74
2023/06/10 07:58:42;;;;;;;9.10;4.53;;;31.40;84.70;;;;;;5099029;28;20261;-75
2023/06/10 08:01:09;;;;;;;5.90;4.65;;;31.40;83.70;;;;;;5101287;28;20220;-75
2023/06/10 08:03:36;;;;;;;11.40;5.80;;;31.30;84.00;;;;;;5083368;28;20201;-75
2023/06/10 08:06:03;;;;;;;6.63;4.53;;;31.40;84.60;;;;;;5121764;28;20653;-75
2023/06/10 08:08:30;;;;;;;7.10;4.07;;;31.70;84.40;;;;;;5094631;28;20192;-75
2023/06/10 08:10:57;;;;;;;5.00;4.28;;;31.80;82.90;;;;;;5107420;28;20644;-75
2023/06/10 08:13:25;;;;;;;5.85;4.30;;;31.90;83.10;;;;;;5098042;28;20227;-76
2023/06/10 08:15:53;;;;;;;6.10;4.22;;;31.90;82.80;;;;;;5104006;28;20231;-76
2023/06/10 08:18:21;;;;;;;6.50;4.90;;;31.70;81.90;;;;;;5101393;28;20249;-76
2023/06/10 08:20:48;;;;;;;5.28;4.20;;;31.40;82.00;;;;;;5098016;28;20668;-75
2023/06/10 08:23:14;;;;;;;4.72;4.13;;;31.40;83.10;;;;;;5101457;28;20237;-76
2023/06/10 08:25:41;;;;;;;6.53;4.05;;;31.20;81.10;;;;;;5101289;28;20623;-76
2023/06/10 08:28:08;;;;;;;9.63;4.70;;;30.90;80.50;;;;;;5104001;27;20206;-75
2023/06/10 08:30:35;;;;;;;10.23;4.68;;;30.50;81.40;;;;;;5105582;28;20249;-75
2023/06/10 08:33:02;;;;;;;6.85;4.28;;;30.20;81.40;;;;;;5106841;28;20202;-75
2023/06/10 08:35:28;;;;;;;6.15;4.38;;;30.00;82.00;;;;;;5101183;28;20227;-75
2023/06/10 08:37:55;;;;;;;7.75;4.20;;;29.90;82.40;;;;;;5081804;28;20670;-76
2023/06/10 08:40:22;;;;;;;5.80;4.03;;;29.80;83.10;;;;;;5104290;28;20191;-76
2023/06/10 08:42:58;;;;;;;5.93;4.43;;;30.10;83.90;;;;;;5101220;28;20200;-75
2023/06/10 08:45:31;;;;;;;6.13;4.10;;;30.50;83.00;;;;;;5098961;28;20298;-77
2023/06/10 08:47:58;;;;;;;6.10;4.00;;;30.80;82.20;;;;;;5101673;28;20222;-75
2023/06/10 08:50:29;;;;;;;7.32;4.03;;;30.90;82.00;;;;;;5116634;27;20537;-76
2023/06/10 08:52:58;;;;;;;7.28;4.05;;;31.10;82.30;;;;;;5082537;28;20199;-76
2023/06/10 08:55:41;;;;;;;5.57;4.18;;;31.30;80.80;;;;;;5081690;28;20235;-76
2023/06/10 08:58:08;;;;;;;6.22;4.05;;;31.40;80.40;;;;;;5101216;28;20203;-76
2023/06/10 09:00:36;;;;;;;6.68;3.80;;;31.50;80.00;;;;;;5105342;28;20346;-76
2023/06/10 09:03:04;;;;;;;5.22;4.20;;;31.60;80.30;;;;;;5104951;28;20203;-75
2023/06/10 09:05:36;;;;;;;5.15;3.97;;;31.70;79.20;;;;;;5102956;28;20219;-76
2023/06/10 09:08:05;;;;;;;7.85;3.80;;;31.40;78.40;;;;;;5080772;28;20222;-77
2023/06/10 09:10:33;;;;;;;5.32;4.05;;;31.20;78.60;;;;;;5104281;28;20659;-74
2023/06/10 09:12:59;;;;;;;5.85;4.00;;;30.90;78.80;;;;;;5100190;28;20671;-75
2023/06/10 09:15:27;;;;;;;6.22;4.07;;;30.90;79.20;;;;;;5084020;28;20798;-76
2023/06/10 09:17:54;;;;;;;7.28;4.00;;;30.90;79.20;;;;;;5083900;28;20594;-76
2023/06/10 09:20:20;;;;;;;6.65;4.13;;;31.00;78.90;;;;;;5104474;28;20201;-75
2023/06/10 09:22:48;;;;;;;5.57;3.83;;;30.90;78.80;;;;;;5099954;28;20321;-75
2023/06/10 09:25:15;;;;;;;5.78;4.25;;;30.80;78.30;;;;;;5103407;28;20622;-76
2023/06/10 09:27:48;;;;;;;4.60;3.72;;;30.70;78.20;;;;;;5100153;28;20542;-76
2023/06/10 09:30:28;;;;;;;5.70;3.90;;;30.80;78.50;;;;;;5102203;28;20675;-78
2023/06/10 09:32:57;;;;;;;6.40;4.13;;;30.90;80.20;;;;;;5105716;28;20219;-76
2023/06/10 09:35:25;;;;;;;5.93;4.10;;;31.00;80.20;;;;;;5099415;28;20550;-75
2023/06/10 09:37:53;;;;;;;7.05;3.67;;;31.00;80.00;;;;;;5100148;28;20231;-78
2023/06/10 09:40:20;;;;;;;7.05;3.95;;;31.20;79.40;;;;;;5101988;28;20203;-75
2023/06/10 09:42:59;;;;;;;5.97;3.55;;;31.30;79.40;;;;;;5100910;28;20204;-77
2023/06/10 09:45:32;;;;;;;4.82;3.85;;;31.40;79.10;;;;;;5096722;28;20207;-75
2023/06/10 09:48:00;;;;;;;6.60;3.72;;;31.50;79.90;;;;;;5099804;28;20257;-75
2023/06/10 09:50:28;;;;;;;12.77;4.53;;;31.20;78.20;;;;;;5099559;28;20211;-76
2023/06/10 09:52:54;;;;;;;4.97;3.60;;;31.10;79.50;;;;;;5102194;28;20686;-76
2023/06/10 09:55:23;;;;;;;6.82;4.20;;;31.00;78.40;;;;;;5101793;28;20306;-76
2023/06/10 09:57:53;;;;;;;5.90;4.18;;;30.90;79.30;;;;;;5104186;28;20207;-75
2023/06/10 10:00:22;;;;;;;6.78;4.22;;;30.80;78.80;;;;;;5102412;28;20210;-76
2023/06/10 10:02:51;;;;;;;5.72;3.78;;;30.60;78.90;;;;;;5089538;28;20711;-78
2023/06/10 10:05:20;;;;;;;6.32;4.15;;;30.60;80.00;;;;;;5102233;28;20195;-76
2023/06/10 10:07:47;;;;;;;6.85;4.10;;;30.90;79.90;;;;;;5115778;27;20721;-77
2023/06/10 10:10:16;;;;;;;6.32;4.28;;;31.00;79.90;;;;;;5101178;28;20195;-77
2023/06/10 10:12:45;;;;;;;5.10;3.90;;;31.00;79.30;;;;;;5092907;28;20311;-78
2023/06/10 10:15:12;;;;;;;5.72;3.97;;;31.00;80.20;;;;;;5066377;28;20651;-76
2023/06/10 10:18:05;;;;;;;8.00;3.97;;;31.20;79.90;;;;;;5100313;28;20219;-75
2023/06/10 10:20:34;;;;;;;6.88;3.97;;;31.40;79.20;;;;;;5101886;28;20724;-75
2023/06/10 10:23:04;;;;;;;6.70;3.90;;;31.50;79.60;;;;;;5102755;28;20310;-75
2023/06/10 10:25:42;;;;;;;8.35;4.32;;;31.50;78.40;;;;;;5099341;28;20206;-74
2023/06/10 10:28:11;;;;;;;6.05;3.78;;;31.60;78.00;;;;;;5099160;28;20287;-77
2023/06/10 10:30:51;;;;;;;4.63;3.42;;;31.40;76.70;;;;;;5100724;28;20249;-76
2023/06/10 10:33:22;;;;;;;6.00;4.03;;;31.10;76.70;;;;;;5095792;28;20219;-76
2023/06/10 10:35:50;;;;;;;5.40;3.90;;;31.10;77.00;;;;;;5083162;28;20310;-75
2023/06/10 10:38:17;;;;;;;7.43;3.90;;;31.30;77.30;;;;;;5115319;27;20199;-76
2023/06/10 10:40:46;;;;;;;5.13;3.63;;;31.50;78.70;;;;;;5101601;28;20203;-75
2023/06/10 10:43:14;;;;;;;6.85;3.65;;;31.50;77.40;;;;;;5098759;28;20264;-77
2023/06/10 10:45:41;;;;;;;7.45;4.07;;;31.50;76.80;;;;;;5094711;28;20210;-75
2023/06/10 10:48:11;;;;;;;5.43;3.63;;;31.50;75.60;;;;;;5101775;28;20546;-77
2023/06/10 10:50:40;;;;;;;11.07;3.63;;;31.60;75.40;;;;;;5098980;28;20731;-76
2023/06/10 10:53:07;;;;;;;6.70;3.72;;;31.70;75.50;;;;;;5098923;28;20211;-77
2023/06/10 10:55:34;;;;;;;4.97;3.75;;;31.80;73.80;;;;;;5100685;28;20228;-75
2023/06/10 10:58:08;;;;;;;5.25;3.75;;;31.80;73.10;;;;;;5099371;28;20273;-76
2023/06/10 11:00:37;;;;;;;4.90;3.85;;;31.70;73.30;;;;;;5102156;28;20545;-78
2023/06/10 11:03:06;;;;;;;5.95;3.58;;;31.80;73.00;;;;;;5093297;28;20205;-75
2023/06/10 11:05:44;;;;;;;7.40;4.05;;;31.70;75.10;;;;;;5118030;27;20235;-77
2023/06/10 11:08:11;;;;;;;8.02;3.80;;;31.80;77.10;;;;;;5099785;28;20202;-74
2023/06/10 11:10:50;;;;;;;6.68;3.90;;;31.90;75.90;;;;;;5101737;28;20669;-74
2023/06/10 11:13:20;;;;;;;7.18;3.90;;;31.70;72.60;;;;;;5100974;28;20604;-76
2023/06/10 11:15:52;;;;;;;6.78;4.28;;;31.60;73.50;;;;;;5101490;28;20314;-75
2023/06/10 11:18:26;;;;;;;6.15;4.00;;;31.70;74.30;;;;;;5078825;28;20204;-75
2023/06/10 11:20:58;;;;;;;5.80;3.72;;;31.80;73.90;;;;;;5099409;28;20289;-76
2023/06/10 11:23:28;;;;;;;5.57;3.45;;;31.90;73.60;;;;;;5097930;28;20588;-76
2023/06/10 11:26:14;;;;;;;5.57;3.92;;;32.10;74.40;;;;;;5098049;28;20581;-75
2023/06/10 11:29:08;;;;;;;7.30;3.78;;;32.30;72.30;;;;;;5076870;28;20199;-75
2023/06/10 11:31:47;;;;;;;6.10;3.83;;;32.10;70.50;;;;;;5100074;28;20220;-76
2023/06/10 11:34:15;;;;;;;6.55;3.65;;;32.00;70.00;;;;;;5099071;28;20299;-76
2023/06/10 11:36:45;;;;;;;4.45;3.40;;;32.00;71.20;;;;;;5096989;28;20638;-74
2023/06/10 11:39:13;;;;;;;6.13;3.40;;;32.10;71.60;;;;;;5096891;28;20257;-73
2023/06/10 11:41:40;;;;;;;6.78;4.30;;;32.30;71.90;;;;;;5100292;28;20857;-77
2023/06/10 11:44:12;;;;;;;5.97;3.75;;;32.40;71.20;;;;;;5108502;28;20195;-74
2023/06/10 11:46:45;;;;;;;6.30;4.10;;;32.50;71.30;;;;;;5093966;28;20223;-75
2023/06/10 11:49:12;;;;;;;5.22;3.88;;;32.70;71.50;;;;;;5096492;28;20211;-77
2023/06/10 11:51:41;;;;;;;5.80;4.00;;;32.80;69.30;;;;;;5097875;28;20227;-75
2023/06/10 11:54:11;;;;;;;5.63;3.85;;;32.80;68.40;;;;;;5098955;28;20199;-76
2023/06/10 11:56:38;;;;;;;5.97;4.10;;;32.90;70.00;;;;;;5105187;28;20223;-76
2023/06/10 11:59:09;;;;;;;5.03;3.70;;;32.90;69.90;;;;;;5095866;28;20203;-76
2023/06/10 12:01:39;;;;;;;4.88;3.90;;;32.90;69.90;;;;;;5100045;28;20223;-75
2023/06/10 12:04:12;;;;;;;5.70;3.97;;;33.10;68.70;;;;;;5112782;28;20219;-74
2023/06/10 12:06:50;;;;;;;6.05;3.88;;;32.90;67.10;;;;;;5097039;28;20199;-76
2023/06/10 12:09:27;;;;;;;6.20;4.00;;;32.90;67.30;;;;;;5094868;28;20207;-75
2023/06/10 12:12:00;;;;;;;5.38;3.80;;;32.80;66.70;;;;;;5104905;28;20280;-78
2023/06/10 12:14:58;;;;;;;6.38;4.55;;;32.80;66.20;;;;;;5097524;28;20227;-76
2023/06/10 12:17:32;;;;;;;5.97;3.72;;;32.70;64.20;;;;;;5095417;28;20289;-76
2023/06/10 12:20:00;;;;;;;5.60;3.50;;;32.70;64.70;;;;;;5099677;28;20243;-76
2023/06/10 12:22:39;;;;;;;6.35;3.97;;;32.70;64.60;;;;;;5101093;28;20191;-75
2023/06/10 12:25:08;;;;;;;6.10;4.20;;;32.70;66.50;;;;;;5094472;28;20260;-74
2023/06/10 12:27:36;;;;;;;4.53;3.53;;;32.70;66.30;;;;;;5103155;28;20207;-74
2023/06/10 12:30:05;;;;;;;5.88;3.72;;;32.70;66.10;;;;;;5096770;28;20234;-75
2023/06/10 12:32:44;;;;;;;4.57;3.58;;;32.80;65.70;;;;;;5107507;28;20235;-76
2023/06/10 12:35:13;;;;;;;5.22;3.70;;;32.90;65.30;;;;;;5089020;28;21090;-76
2023/06/10 12:37:41;;;;;;;6.57;4.00;;;32.80;64.60;;;;;;5095507;28;20596;-74
2023/06/10 12:40:10;;;;;;;5.93;3.63;;;32.90;65.00;;;;;;5098588;28;20713;-75
2023/06/10 12:42:38;;;;;;;5.45;4.20;;;33.00;65.00;;;;;;5101777;28;20203;-74
2023/06/10 12:45:08;;;;;;;5.40;3.47;;;33.20;65.20;;;;;;5101944;28;20224;-75
2023/06/10 12:47:41;;;;;;;6.78;4.35;;;33.40;63.80;;;;;;5098761;28;20287;-75
2023/06/10 12:50:09;;;;;;;7.05;4.18;;;33.20;63.30;;;;;;5101607;28;20195;-74
2023/06/10 12:52:36;;;;;;;5.35;4.05;;;33.10;62.90;;;;;;5103703;28;20199;-75
2023/06/10 12:55:04;;;;;;;4.88;4.32;;;32.90;62.30;;;;;;5103808;28;20762;-76